Time;durP1;ratioP1;P1;durP2;ratioP2;P2;SDS_P1;SDS_P2;PMS_P1;PMS_P2;Temp;Humidity;BMP_temperature;BMP_pressure;BME280_temperature;BME280_humidity;BME280_pressure;Samples;Min_cycle;Max_cycle;Signal;HPM_P1;HPM_P2
2021/01/05 00:00:48;;;;;;;5.82;2.45;;;3.50;94.70;;;;;;5020383;28;20035;-79
2021/01/05 00:03:14;;;;;;;7.45;2.78;;;3.50;94.60;;;;;;5024027;28;20064;-78
2021/01/05 00:05:40;;;;;;;9.95;3.45;;;3.50;94.70;;;;;;5049393;28;20029;-78
2021/01/05 00:08:06;;;;;;;4.95;2.25;;;3.50;94.50;;;;;;5019631;28;20018;-78
2021/01/05 00:10:32;;;;;;;3.80;1.88;;;3.50;94.50;;;;;;5017829;28;20022;-77
2021/01/05 00:12:57;;;;;;;3.65;2.20;;;3.50;94.50;;;;;;5017722;28;20026;-79
2021/01/05 00:15:24;;;;;;;7.53;2.42;;;3.50;94.40;;;;;;5016041;28;20025;-78
2021/01/05 00:17:50;;;;;;;5.47;1.92;;;3.50;94.50;;;;;;5016716;28;20022;-78
2021/01/05 00:20:27;;;;;;;3.13;1.75;;;3.50;94.50;;;;;;5030623;28;20025;-77
2021/01/05 00:22:52;;;;;;;3.95;1.95;;;3.60;94.40;;;;;;5012668;28;20017;-77
2021/01/05 00:25:19;;;;;;;5.57;2.65;;;3.60;94.20;;;;;;5010183;28;20048;-77
2021/01/05 00:27:46;;;;;;;3.20;2.03;;;3.60;94.20;;;;;;5017747;28;20121;-77
2021/01/05 00:30:21;;;;;;;3.63;2.13;;;3.50;94.10;;;;;;5039804;28;20100;-77
2021/01/05 00:32:50;;;;;;;5.25;2.15;;;3.50;94.20;;;;;;5017785;28;20027;-78
2021/01/05 00:35:23;;;;;;;4.47;1.98;;;3.60;94.30;;;;;;5036422;28;20025;-78
2021/01/05 00:37:49;;;;;;;5.13;2.50;;;3.50;94.20;;;;;;5035075;28;20093;-77
2021/01/05 00:40:16;;;;;;;3.95;1.85;;;3.60;94.20;;;;;;5016933;28;20092;-78
2021/01/05 00:42:42;;;;;;;4.25;1.55;;;3.60;94.20;;;;;;5018967;28;20043;-78
2021/01/05 00:45:09;;;;;;;5.00;2.03;;;3.60;94.00;;;;;;5018079;28;20025;-78
2021/01/05 00:47:35;;;;;;;3.60;2.00;;;3.60;94.10;;;;;;5027359;28;20026;-78
2021/01/05 00:50:01;;;;;;;5.60;2.55;;;3.50;94.30;;;;;;5028333;28;20026;-78
2021/01/05 00:52:27;;;;;;;4.18;2.05;;;3.60;94.20;;;;;;5024151;28;20558;-78
2021/01/05 00:54:52;;;;;;;3.00;1.70;;;3.50;94.10;;;;;;5041496;28;20136;-79
2021/01/05 00:57:18;;;;;;;4.07;2.20;;;3.60;94.20;;;;;;5012366;28;20041;-78
2021/01/05 00:59:44;;;;;;;6.63;2.05;;;3.60;94.20;;;;;;5016476;28;20025;-78
2021/01/05 01:02:13;;;;;;;3.70;1.70;;;3.60;93.90;;;;;;5013602;28;20029;-78
2021/01/05 01:04:39;;;;;;;4.28;2.58;;;3.60;93.90;;;;;;5023046;28;20026;-78
2021/01/05 01:07:05;;;;;;;3.63;2.00;;;3.60;94.00;;;;;;5017769;28;20507;-78
2021/01/05 01:09:31;;;;;;;3.33;1.88;;;3.60;94.00;;;;;;5015020;28;20025;-78
2021/01/05 01:12:14;;;;;;;3.40;1.80;;;3.60;94.10;;;;;;5017278;28;20040;-77
2021/01/05 01:14:42;;;;;;;3.13;1.88;;;3.60;94.10;;;;;;5025330;28;20022;-78
2021/01/05 01:17:09;;;;;;;4.95;2.05;;;3.60;94.00;;;;;;5003536;28;20025;-78
2021/01/05 01:19:35;;;;;;;3.47;1.90;;;3.60;94.00;;;;;;5032254;28;20025;-78
2021/01/05 01:22:00;;;;;;;4.43;1.83;;;3.60;94.10;;;;;;5034334;28;20108;-78
2021/01/05 01:24:26;;;;;;;3.83;2.13;;;3.60;94.10;;;;;;5028886;28;20067;-79
2021/01/05 01:26:53;;;;;;;2.78;1.95;;;3.60;94.20;;;;;;5017300;28;20025;-78
2021/01/05 01:29:20;;;;;;;5.28;2.40;;;3.60;94.10;;;;;;5056544;28;20021;-78
2021/01/05 01:31:47;;;;;;;5.63;1.98;;;3.60;94.20;;;;;;5033929;28;20033;-78
2021/01/05 01:34:16;;;;;;;3.38;1.98;;;3.60;94.10;;;;;;5019078;28;20013;-78
2021/01/05 01:36:42;;;;;;;4.20;2.00;;;3.60;94.00;;;;;;5031944;28;20930;-78
2021/01/05 01:39:08;;;;;;;3.58;2.30;;;3.50;94.00;;;;;;5028248;28;20940;-78
2021/01/05 01:41:34;;;;;;;6.47;1.95;;;3.50;94.00;;;;;;5027849;28;20029;-78
2021/01/05 01:44:01;;;;;;;2.95;1.77;;;3.50;94.10;;;;;;5037004;28;20045;-78
2021/01/05 01:46:35;;;;;;;3.50;1.83;;;3.50;94.00;;;;;;5030763;28;20036;-79
2021/01/05 01:49:01;;;;;;;4.90;2.10;;;3.60;93.90;;;;;;5035023;28;20025;-78
2021/01/05 01:51:30;;;;;;;2.60;1.58;;;3.60;94.00;;;;;;5022508;28;20028;-78
2021/01/05 01:54:15;;;;;;;3.05;2.00;;;3.60;94.10;;;;;;5010423;28;20049;-78
2021/01/05 01:56:59;;;;;;;3.10;2.00;;;3.50;94.00;;;;;;5034449;28;20013;-78
2021/01/05 01:59:30;;;;;;;2.95;1.67;;;3.50;93.80;;;;;;5010433;28;20036;-78
2021/01/05 02:02:04;;;;;;;3.55;2.00;;;3.50;93.90;;;;;;5030432;28;20029;-78
2021/01/05 02:04:48;;;;;;;3.55;1.73;;;3.50;93.80;;;;;;5018595;28;20029;-78
2021/01/05 02:07:37;;;;;;;2.40;1.52;;;3.50;93.70;;;;;;5026112;28;20032;-78
2021/01/05 02:10:06;;;;;;;2.92;1.70;;;3.50;93.90;;;;;;5024447;28;20106;-78
2021/01/05 02:12:34;;;;;;;2.58;1.85;;;3.40;93.80;;;;;;5015346;28;20028;-78
2021/01/05 02:15:53;;;;;;;2.90;1.70;;;3.40;93.90;;;;;;5021245;28;20052;-78
2021/01/05 02:18:42;;;;;;;4.85;2.33;;;3.40;94.10;;;;;;5012112;28;20026;-78
2021/01/05 02:21:14;;;;;;;4.82;2.40;;;3.40;94.10;;;;;;5023964;28;20526;-78
2021/01/05 02:24:04;;;;;;;4.88;2.28;;;3.40;94.10;;;;;;5028635;28;20041;-78
2021/01/05 02:26:41;;;;;;;4.63;2.20;;;3.30;94.10;;;;;;5017812;28;20477;-78
2021/01/05 02:29:15;;;;;;;5.25;2.45;;;3.40;94.30;;;;;;5014085;28;20142;-77
2021/01/05 02:31:55;;;;;;;4.10;2.03;;;3.30;94.30;;;;;;5009300;28;20025;-78
2021/01/05 02:34:33;;;;;;;4.88;2.38;;;3.40;94.40;;;;;;5024663;28;20096;-78
2021/01/05 02:37:23;;;;;;;6.03;2.60;;;3.40;94.40;;;;;;5010057;28;20049;-79
2021/01/05 02:40:23;;;;;;;3.85;2.35;;;3.30;94.50;;;;;;5031079;28;20025;-78
2021/01/05 02:42:49;;;;;;;4.75;2.80;;;3.30;94.60;;;;;;5034635;28;20029;-78
2021/01/05 02:45:22;;;;;;;5.35;2.72;;;3.40;94.60;;;;;;5019540;28;20084;-78
2021/01/05 02:48:16;;;;;;;3.90;2.42;;;3.40;94.60;;;;;;5029007;28;20033;-78
2021/01/05 02:51:13;;;;;;;4.15;2.60;;;3.40;94.50;;;;;;5036455;28;20163;-78
2021/01/05 02:54:06;;;;;;;4.07;2.65;;;3.40;94.60;;;;;;5019070;28;20116;-78
2021/01/05 02:56:50;;;;;;;4.30;2.28;;;3.40;94.50;;;;;;5026456;28;20018;-78
2021/01/05 02:59:21;;;;;;;5.47;2.38;;;3.40;94.60;;;;;;5025702;28;21057;-79
2021/01/05 03:02:25;;;;;;;5.13;2.35;;;3.40;94.50;;;;;;5020226;28;20038;-79
2021/01/05 03:04:50;;;;;;;4.15;2.70;;;3.40;94.60;;;;;;5028037;28;20022;-78
2021/01/05 03:07:20;;;;;;;5.25;2.70;;;3.40;94.60;;;;;;5031687;28;20079;-78
2021/01/05 03:10:09;;;;;;;3.85;2.13;;;3.40;94.60;;;;;;5031797;28;20120;-78
2021/01/05 03:13:12;;;;;;;3.88;2.33;;;3.40;94.70;;;;;;5015849;28;20045;-78
2021/01/05 03:15:47;;;;;;;4.25;2.50;;;3.40;94.60;;;;;;5007726;28;20113;-79
2021/01/05 03:18:23;;;;;;;5.03;2.50;;;3.40;94.70;;;;;;5018953;28;20021;-79
2021/01/05 03:21:07;;;;;;;4.28;2.40;;;3.40;94.70;;;;;;5013336;28;20565;-79
2021/01/05 03:23:34;;;;;;;4.53;2.60;;;3.40;94.60;;;;;;5008472;28;20382;-78
2021/01/05 03:26:04;;;;;;;5.30;3.10;;;3.40;94.60;;;;;;5038835;28;20111;-79
2021/01/05 03:28:31;;;;;;;5.70;2.70;;;3.40;94.60;;;;;;5041760;28;20060;-78
2021/01/05 03:31:14;;;;;;;5.25;2.90;;;3.40;94.50;;;;;;5019533;28;20029;-78
2021/01/05 03:33:40;;;;;;;4.53;2.63;;;3.40;94.60;;;;;;5026794;28;20485;-78
2021/01/05 03:36:06;;;;;;;4.43;2.80;;;3.40;94.50;;;;;;5040374;28;20080;-78
2021/01/05 03:38:32;;;;;;;4.80;2.55;;;3.40;94.50;;;;;;5043041;28;20032;-78
2021/01/05 03:41:00;;;;;;;4.70;2.92;;;3.40;94.60;;;;;;5025382;28;20025;-78
2021/01/05 03:43:26;;;;;;;5.22;2.70;;;3.40;94.60;;;;;;5045087;28;20037;-78
2021/01/05 03:45:52;;;;;;;4.88;3.20;;;3.40;94.60;;;;;;5042207;28;20083;-79
2021/01/05 03:48:17;;;;;;;6.40;3.08;;;3.40;94.50;;;;;;5021273;28;20129;-78
2021/01/05 03:50:43;;;;;;;4.88;3.00;;;3.40;94.50;;;;;;5048671;28;20021;-78
2021/01/05 03:53:09;;;;;;;5.10;3.10;;;3.30;94.60;;;;;;5045329;28;20029;-78
2021/01/05 03:55:34;;;;;;;6.10;3.28;;;3.40;94.60;;;;;;5022820;28;20049;-78
2021/01/05 03:58:00;;;;;;;6.90;3.60;;;3.40;94.60;;;;;;5029194;28;20035;-78
2021/01/05 04:00:26;;;;;;;5.47;3.50;;;3.40;94.60;;;;;;5040011;28;20043;-78
2021/01/05 04:02:57;;;;;;;4.85;3.22;;;3.40;94.70;;;;;;5019513;28;20026;-79
2021/01/05 04:05:24;;;;;;;6.93;3.80;;;3.40;94.70;;;;;;5047856;28;20021;-78
2021/01/05 04:07:50;;;;;;;5.88;3.30;;;3.40;94.70;;;;;;5050616;28;20033;-78
2021/01/05 04:10:16;;;;;;;5.75;3.95;;;3.40;94.70;;;;;;5043856;28;20033;-78
2021/01/05 04:12:42;;;;;;;6.30;3.42;;;3.40;94.60;;;;;;5040680;28;20103;-77
2021/01/05 04:15:14;;;;;;;5.72;3.55;;;3.40;94.70;;;;;;5032139;28;20029;-77
2021/01/05 04:17:39;;;;;;;6.00;3.60;;;3.40;94.80;;;;;;5038171;28;20029;-78
2021/01/05 04:20:06;;;;;;;9.55;3.58;;;3.40;94.80;;;;;;5048321;28;20029;-79
2021/01/05 04:22:32;;;;;;;6.55;3.63;;;3.40;94.90;;;;;;5040270;28;20036;-78
2021/01/05 04:24:57;;;;;;;6.90;4.15;;;3.40;94.80;;;;;;5043101;28;20711;-77
2021/01/05 04:27:23;;;;;;;7.55;3.50;;;3.40;94.80;;;;;;5031845;28;20393;-78
2021/01/05 04:29:48;;;;;;;7.45;3.65;;;3.50;94.90;;;;;;5033468;28;20112;-78
2021/01/05 04:32:14;;;;;;;6.18;3.92;;;3.50;94.90;;;;;;5018116;28;20033;-78
2021/01/05 04:34:40;;;;;;;5.50;3.60;;;3.50;94.80;;;;;;5031723;28;20108;-78
2021/01/05 04:37:06;;;;;;;6.88;3.75;;;3.40;94.80;;;;;;5027383;28;20029;-77
2021/01/05 04:39:31;;;;;;;6.20;3.85;;;3.40;94.80;;;;;;5051274;28;20071;-78
2021/01/05 04:42:35;;;;;;;6.40;3.83;;;3.50;94.90;;;;;;5025878;28;20051;-78
2021/01/05 04:45:08;;;;;;;7.05;3.17;;;3.50;94.90;;;;;;5033438;28;20503;-78
2021/01/05 04:48:29;;;;;;;6.20;3.38;;;3.50;94.70;;;;;;5046480;28;20029;-78
2021/01/05 04:51:00;;;;;;;5.10;3.13;;;3.60;94.80;;;;;;4981827;28;20024;-78
2021/01/05 04:53:29;;;;;;;7.88;3.50;;;3.50;94.70;;;;;;5025389;28;20455;-78
2021/01/05 04:56:04;;;;;;;5.35;3.63;;;3.60;94.60;;;;;;5029744;28;20177;-78
2021/01/05 04:58:53;;;;;;;6.47;3.47;;;3.60;94.60;;;;;;5046013;28;20628;-78
2021/01/05 05:01:33;;;;;;;6.07;4.10;;;3.50;94.60;;;;;;5038789;28;21319;-77
2021/01/05 05:04:22;;;;;;;5.90;3.70;;;3.50;94.80;;;;;;5031810;28;20025;-78
2021/01/05 05:07:24;;;;;;;7.53;4.07;;;3.50;94.90;;;;;;5029571;28;20025;-78
2021/01/05 05:10:16;;;;;;;6.43;3.53;;;3.50;94.80;;;;;;5026782;28;20501;-78
2021/01/05 05:12:48;;;;;;;6.45;3.35;;;3.50;94.90;;;;;;5006241;28;20044;-78
2021/01/05 05:15:35;;;;;;;7.20;3.90;;;3.60;94.90;;;;;;5032743;28;20112;-78
2021/01/05 05:18:15;;;;;;;6.65;3.97;;;3.60;94.90;;;;;;5042701;28;20033;-79
2021/01/05 05:20:56;;;;;;;9.07;3.97;;;3.60;94.80;;;;;;5047506;28;20044;-78
2021/01/05 05:23:33;;;;;;;;;;;3.60;94.80;;;;;;5047052;28;20037;-78
2021/01/05 05:26:24;;;;;;;6.35;4.07;;;3.60;94.60;;;;;;5049155;28;19909;-78
2021/01/05 05:29:02;;;;;;;7.22;4.20;;;3.60;94.60;;;;;;5029502;28;20106;-77
2021/01/05 05:31:32;;;;;;;6.40;4.05;;;3.60;94.60;;;;;;5025171;28;20147;-78
2021/01/05 05:34:36;;;;;;;7.45;4.35;;;3.60;94.60;;;;;;5030440;28;20052;-78
2021/01/05 05:37:26;;;;;;;10.85;4.55;;;3.60;94.80;;;;;;5030958;28;21435;-78
2021/01/05 05:40:37;;;;;;;8.25;4.90;;;3.70;94.60;;;;;;5047516;28;20591;-77
2021/01/05 05:43:06;;;;;;;9.75;5.95;;;3.60;94.50;;;;;;5012295;28;21080;-77
2021/01/05 05:45:36;;;;;;;7.38;4.45;;;3.60;94.40;;;;;;5036195;28;20068;-77
2021/01/05 05:48:37;;;;;;;6.60;4.25;;;3.60;94.50;;;;;;5039787;28;20389;-77
2021/01/05 05:51:19;;;;;;;9.73;4.75;;;3.70;94.50;;;;;;5020561;28;20588;-77
2021/01/05 05:53:59;;;;;;;6.72;4.25;;;3.70;94.40;;;;;;5047008;28;20495;-76
2021/01/05 05:56:42;;;;;;;7.50;4.68;;;3.70;94.50;;;;;;5027041;28;20385;-76
2021/01/05 05:59:09;;;;;;;7.60;4.43;;;3.60;94.50;;;;;;5027063;28;20028;-78
2021/01/05 06:01:38;;;;;;;10.95;5.80;;;3.70;94.60;;;;;;5045286;28;20032;-78
2021/01/05 06:04:04;;;;;;;7.50;5.00;;;3.70;94.60;;;;;;5029215;28;20098;-77
2021/01/05 06:06:31;;;;;;;9.93;5.38;;;3.70;94.40;;;;;;5048607;28;20095;-78
2021/01/05 06:08:58;;;;;;;8.40;5.18;;;3.70;94.50;;;;;;5030567;28;20028;-78
2021/01/05 06:11:24;;;;;;;11.15;5.00;;;3.70;94.30;;;;;;5027151;28;20021;-78
2021/01/05 06:13:49;;;;;;;9.07;4.53;;;3.70;94.20;;;;;;5054787;28;20509;-78
2021/01/05 06:16:15;;;;;;;9.88;5.57;;;3.70;94.30;;;;;;5052604;28;20024;-78
2021/01/05 06:18:41;;;;;;;10.00;5.15;;;3.70;94.40;;;;;;5034357;28;20110;-78
2021/01/05 06:21:07;;;;;;;8.90;5.10;;;3.70;94.30;;;;;;5049845;28;20536;-78
2021/01/05 06:23:33;;;;;;;8.45;5.35;;;3.70;94.40;;;;;;5031157;28;20021;-78
2021/01/05 06:25:59;;;;;;;10.27;5.32;;;3.70;94.40;;;;;;5044327;28;20036;-78
2021/01/05 06:28:24;;;;;;;9.77;5.75;;;3.70;94.40;;;;;;5030488;28;20045;-77
2021/01/05 06:30:50;;;;;;;9.23;5.57;;;3.70;94.40;;;;;;5040752;28;20358;-78
2021/01/05 06:33:16;;;;;;;8.30;4.90;;;3.70;94.50;;;;;;5047210;28;20063;-78
2021/01/05 06:35:41;;;;;;;9.07;5.15;;;3.70;94.50;;;;;;5029469;28;20501;-78
2021/01/05 06:38:07;;;;;;;10.60;5.18;;;3.70;94.60;;;;;;5044784;28;20056;-78
2021/01/05 06:40:33;;;;;;;8.75;5.45;;;3.70;94.60;;;;;;5027844;28;20101;-78
2021/01/05 06:43:02;;;;;;;9.70;5.80;;;3.70;94.50;;;;;;5030677;28;20094;-77
2021/01/05 06:45:33;;;;;;;9.02;5.28;;;3.70;94.60;;;;;;5028423;28;20029;-78
2021/01/05 06:47:59;;;;;;;8.48;4.90;;;3.70;94.70;;;;;;5025855;28;20082;-76
2021/01/05 06:50:28;;;;;;;8.02;5.03;;;3.70;94.60;;;;;;5044198;28;20495;-76
2021/01/05 06:52:54;;;;;;;8.55;5.13;;;3.70;94.70;;;;;;5042160;28;20523;-76
2021/01/05 06:55:20;;;;;;;14.30;5.30;;;3.70;94.70;;;;;;5045086;28;20056;-76
2021/01/05 06:57:46;;;;;;;9.02;4.88;;;3.70;94.80;;;;;;5021700;28;20037;-77
2021/01/05 07:00:20;;;;;;;10.48;5.20;;;3.70;94.60;;;;;;5034480;28;20053;-77
2021/01/05 07:02:47;;;;;;;8.10;4.75;;;3.70;94.70;;;;;;5044312;28;20056;-77
2021/01/05 07:05:14;;;;;;;9.77;5.88;;;3.70;94.70;;;;;;5022875;28;20029;-78
2021/01/05 07:07:40;;;;;;;8.60;4.97;;;3.80;94.70;;;;;;5043636;28;20024;-77
2021/01/05 07:10:07;;;;;;;9.75;4.93;;;3.80;94.60;;;;;;5032362;28;20036;-76
2021/01/05 07:12:33;;;;;;;10.65;5.72;;;3.80;94.60;;;;;;5041819;28;20028;-76
2021/01/05 07:14:59;;;;;;;9.07;5.82;;;3.70;94.70;;;;;;5027530;28;20017;-77
2021/01/05 07:17:25;;;;;;;7.53;4.65;;;3.70;94.60;;;;;;5047879;28;20025;-77
2021/01/05 07:19:51;;;;;;;8.32;5.18;;;3.80;94.50;;;;;;5052141;28;20479;-78
2021/01/05 07:22:16;;;;;;;9.15;5.40;;;3.80;94.60;;;;;;5043342;28;20106;-76
2021/01/05 07:24:42;;;;;;;9.55;5.60;;;3.80;94.70;;;;;;5029807;28;20041;-76
2021/01/05 07:27:08;;;;;;;8.90;5.70;;;3.80;94.50;;;;;;5037703;28;20025;-77
2021/01/05 07:29:33;;;;;;;9.82;5.82;;;3.80;94.80;;;;;;5046249;28;20574;-76
2021/01/05 07:31:59;;;;;;;7.35;4.90;;;3.80;94.60;;;;;;5046027;28;20034;-78
2021/01/05 07:34:25;;;;;;;11.25;5.60;;;3.80;94.60;;;;;;5030608;28;20507;-77
2021/01/05 07:36:59;;;;;;;8.70;5.38;;;3.80;94.90;;;;;;5016015;28;20698;-76
2021/01/05 07:39:33;;;;;;;9.15;4.65;;;3.80;94.40;;;;;;5029232;28;20123;-77
2021/01/05 07:42:22;;;;;;;8.75;5.10;;;3.80;94.50;;;;;;5016782;28;20412;-76
2021/01/05 07:44:50;;;;;;;10.32;5.60;;;3.80;94.50;;;;;;5028712;28;20031;-76
2021/01/05 07:47:17;;;;;;;8.00;4.97;;;3.80;94.60;;;;;;5055440;28;20064;-77
2021/01/05 07:49:43;;;;;;;8.32;5.57;;;3.80;94.50;;;;;;5037621;28;20084;-78
2021/01/05 07:52:24;;;;;;;8.68;5.53;;;3.70;94.50;;;;;;5015311;28;20516;-77
2021/01/05 07:54:50;;;;;;;7.88;5.43;;;3.80;94.60;;;;;;5026027;28;20439;-78
2021/01/05 07:57:16;;;;;;;8.88;5.90;;;3.80;94.60;;;;;;5039469;28;20091;-78
2021/01/05 07:59:42;;;;;;;10.05;5.72;;;3.80;94.50;;;;;;5022883;28;20108;-79
2021/01/05 08:02:09;;;;;;;10.40;5.88;;;3.80;94.60;;;;;;5042557;28;20053;-78
2021/01/05 08:04:36;;;;;;;13.35;6.05;;;3.80;94.50;;;;;;5035602;28;20025;-78
2021/01/05 08:07:01;;;;;;;9.70;5.75;;;3.80;94.50;;;;;;5021123;28;20065;-77
2021/01/05 08:09:27;;;;;;;9.88;5.78;;;3.80;94.50;;;;;;5019506;28;20655;-76
2021/01/05 08:11:53;;;;;;;7.82;5.55;;;3.80;94.60;;;;;;5019057;28;20018;-78
2021/01/05 08:14:18;;;;;;;10.52;5.90;;;3.80;94.40;;;;;;5036233;28;20053;-77
2021/01/05 08:16:49;;;;;;;10.52;5.75;;;3.90;94.40;;;;;;5027335;28;20026;-78
2021/01/05 08:19:15;;;;;;;9.50;6.35;;;3.80;94.40;;;;;;5030280;28;20033;-78
2021/01/05 08:21:40;;;;;;;9.90;6.57;;;3.80;94.40;;;;;;5008110;28;20042;-77
2021/01/05 08:24:06;;;;;;;9.20;5.28;;;3.90;94.50;;;;;;5025127;28;20088;-79
2021/01/05 08:26:32;;;;;;;9.60;5.70;;;3.90;94.50;;;;;;5010440;28;20033;-75
2021/01/05 08:28:58;;;;;;;7.88;5.30;;;3.90;94.50;;;;;;5030080;28;20024;-75
2021/01/05 08:31:33;;;;;;;9.88;5.20;;;3.90;94.50;;;;;;5013294;28;20030;-77
2021/01/05 08:33:59;;;;;;;8.98;4.95;;;3.90;94.40;;;;;;5011687;28;20037;-75
2021/01/05 08:36:29;;;;;;;9.10;5.82;;;3.90;94.40;;;;;;5025477;28;20034;-76
2021/01/05 08:38:55;;;;;;;8.65;5.40;;;3.80;94.50;;;;;;5036985;28;20065;-75
2021/01/05 08:41:21;;;;;;;8.18;5.05;;;3.90;94.60;;;;;;5029051;28;20064;-75
2021/01/05 08:43:46;;;;;;;9.43;5.20;;;3.90;94.50;;;;;;5029484;28;20033;-76
2021/01/05 08:46:19;;;;;;;9.18;4.68;;;3.90;94.50;;;;;;5024211;28;20029;-75
2021/01/05 08:48:45;;;;;;;9.55;5.05;;;3.90;94.60;;;;;;5015694;28;20029;-75
2021/01/05 08:51:11;;;;;;;7.68;5.22;;;3.90;94.50;;;;;;5027706;28;20120;-75
2021/01/05 08:53:36;;;;;;;7.68;4.90;;;3.90;94.40;;;;;;5027656;28;20017;-76
2021/01/05 08:56:02;;;;;;;7.43;4.45;;;3.90;94.50;;;;;;5041472;28;20495;-75
2021/01/05 08:58:28;;;;;;;8.05;4.95;;;3.90;94.70;;;;;;5032591;28;20423;-75
2021/01/05 09:00:55;;;;;;;8.93;5.13;;;3.90;94.30;;;;;;5032762;28;20024;-75
2021/01/05 09:03:21;;;;;;;8.90;4.43;;;3.90;94.50;;;;;;5017913;28;20093;-75
2021/01/05 09:05:46;;;;;;;6.80;4.30;;;4.00;94.40;;;;;;5028479;28;20033;-76
2021/01/05 09:08:14;;;;;;;8.20;5.00;;;4.00;94.20;;;;;;5027514;28;20032;-75
2021/01/05 09:10:40;;;;;;;7.68;4.55;;;4.00;94.20;;;;;;5026705;28;20028;-75
2021/01/05 09:13:05;;;;;;;7.75;4.93;;;4.00;94.30;;;;;;5030794;28;20029;-75
2021/01/05 09:15:31;;;;;;;9.15;4.80;;;4.00;94.20;;;;;;5019491;28;20111;-75
2021/01/05 09:17:58;;;;;;;7.60;4.70;;;4.00;94.00;;;;;;5022032;28;20065;-75
2021/01/05 09:20:24;;;;;;;8.85;5.05;;;4.00;94.10;;;;;;5036273;28;20033;-75
2021/01/05 09:22:54;;;;;;;9.23;5.18;;;4.00;94.10;;;;;;5026167;28;20398;-75
2021/01/05 09:25:25;;;;;;;8.35;4.65;;;4.00;94.30;;;;;;5026703;28;20113;-74
2021/01/05 09:27:51;;;;;;;9.82;5.40;;;4.00;94.30;;;;;;5011048;28;20080;-74
2021/01/05 09:30:19;;;;;;;8.57;4.60;;;4.00;94.40;;;;;;5002129;28;20481;-74
2021/01/05 09:32:46;;;;;;;8.68;4.97;;;4.10;94.40;;;;;;5057724;22;20396;-76
2021/01/05 09:35:13;;;;;;;9.75;5.55;;;4.10;94.10;;;;;;5037513;28;20109;-75
2021/01/05 09:37:40;;;;;;;8.40;4.45;;;4.10;94.30;;;;;;5020163;28;20017;-76
2021/01/05 09:40:06;;;;;;;8.02;4.85;;;4.10;94.10;;;;;;5036208;28;20076;-77
2021/01/05 09:42:32;;;;;;;8.95;4.90;;;4.20;93.90;;;;;;5019460;28;20029;-77
2021/01/05 09:44:58;;;;;;;8.38;4.57;;;4.20;94.00;;;;;;4998200;28;20159;-77
2021/01/05 09:47:23;;;;;;;6.55;4.25;;;4.10;94.10;;;;;;4997797;28;20409;-76
2021/01/05 09:49:50;;;;;;;8.27;4.80;;;4.10;94.00;;;;;;5013262;28;20022;-75
2021/01/05 09:52:16;;;;;;;9.60;4.60;;;4.20;94.00;;;;;;5016893;28;20516;-77
2021/01/05 09:54:47;;;;;;;7.72;4.72;;;4.20;93.80;;;;;;5000460;28;20503;-74
2021/01/05 09:57:13;;;;;;;8.25;5.00;;;4.20;94.00;;;;;;5012023;28;20517;-77
2021/01/05 09:59:39;;;;;;;7.25;4.30;;;4.20;94.00;;;;;;4999043;28;20053;-77
2021/01/05 10:02:05;;;;;;;7.75;4.40;;;4.20;94.10;;;;;;5010999;28;20057;-76
2021/01/05 10:04:31;;;;;;;8.10;4.88;;;4.20;93.80;;;;;;5015285;28;20405;-74
2021/01/05 10:06:57;;;;;;;8.25;4.85;;;4.30;93.70;;;;;;5014839;28;20021;-77
2021/01/05 10:09:22;;;;;;;10.48;5.32;;;4.20;93.60;;;;;;5017477;28;20035;-75
2021/01/05 10:11:48;;;;;;;8.15;4.72;;;4.30;93.60;;;;;;4999892;28;20036;-77
2021/01/05 10:14:17;;;;;;;9.13;4.53;;;4.30;93.60;;;;;;5013239;28;20054;-76
2021/01/05 10:16:44;;;;;;;7.82;4.63;;;4.30;93.60;;;;;;5011400;28;20116;-75
2021/01/05 10:19:13;;;;;;;7.07;4.35;;;4.30;93.70;;;;;;5014622;28;20029;-77
2021/01/05 10:21:41;;;;;;;8.48;4.40;;;4.30;93.60;;;;;;5014015;28;20061;-76
2021/01/05 10:24:09;;;;;;;5.65;3.78;;;4.30;93.60;;;;;;5015142;28;20029;-77
2021/01/05 10:26:35;;;;;;;5.88;4.05;;;4.30;93.40;;;;;;5015122;28;20405;-76
2021/01/05 10:29:02;;;;;;;5.38;4.03;;;4.30;93.20;;;;;;5019183;28;20032;-77
2021/01/05 10:31:40;;;;;;;7.25;4.20;;;4.30;93.40;;;;;;5020598;28;20456;-76
2021/01/05 10:34:06;;;;;;;7.68;3.97;;;4.30;93.40;;;;;;5021554;28;20072;-77
2021/01/05 10:36:36;;;;;;;6.85;4.32;;;4.30;93.20;;;;;;5003057;28;20038;-77
2021/01/05 10:39:05;;;;;;;5.53;3.60;;;4.30;93.30;;;;;;5019535;28;20515;-76
2021/01/05 10:41:36;;;;;;;7.15;4.20;;;4.40;93.30;;;;;;5020387;28;20029;-77
2021/01/05 10:44:02;;;;;;;7.32;4.38;;;4.40;93.20;;;;;;5038383;28;20032;-76
2021/01/05 10:46:28;;;;;;;7.82;3.95;;;4.40;93.20;;;;;;5026430;28;20034;-75
2021/01/05 10:48:54;;;;;;;11.10;4.60;;;4.30;93.20;;;;;;5010012;28;20132;-76
2021/01/05 10:51:20;;;;;;;6.53;4.03;;;4.40;93.20;;;;;;5022538;28;20520;-76
2021/01/05 10:53:46;;;;;;;7.45;4.00;;;4.40;93.10;;;;;;5003000;28;20799;-77
2021/01/05 10:56:16;;;;;;;7.55;4.15;;;4.40;92.90;;;;;;5025054;28;20152;-76
2021/01/05 10:58:42;;;;;;;7.87;4.10;;;4.40;93.00;;;;;;5022146;28;20065;-79
2021/01/05 11:01:08;;;;;;;6.60;3.88;;;4.50;92.70;;;;;;5018761;28;20022;-78
2021/01/05 11:03:35;;;;;;;6.10;3.63;;;4.50;92.90;;;;;;5021251;28;20034;-76
2021/01/05 11:06:06;;;;;;;6.68;3.80;;;4.50;92.50;;;;;;5023021;28;20025;-78
2021/01/05 11:08:32;;;;;;;7.38;4.40;;;4.50;92.70;;;;;;5034004;28;20021;-77
2021/01/05 11:11:02;;;;;;;5.45;3.83;;;4.50;92.70;;;;;;5031965;28;20048;-75
2021/01/05 11:13:28;;;;;;;5.60;3.72;;;4.50;92.70;;;;;;5004037;28;20029;-77
2021/01/05 11:15:54;;;;;;;6.05;3.38;;;4.50;92.70;;;;;;5023121;28;20105;-77
2021/01/05 11:18:20;;;;;;;6.10;3.50;;;4.50;92.70;;;;;;5004288;28;20440;-76
2021/01/05 11:20:46;;;;;;;6.25;3.17;;;4.60;92.40;;;;;;5016728;28;20508;-77
2021/01/05 11:23:12;;;;;;;4.82;3.22;;;4.60;92.30;;;;;;5006147;28;20029;-76
2021/01/05 11:25:37;;;;;;;6.50;3.70;;;4.60;92.50;;;;;;5005901;28;20184;-76
2021/01/05 11:28:04;;;;;;;6.47;3.30;;;4.70;92.60;;;;;;5013292;28;20041;-77
2021/01/05 11:30:31;;;;;;;5.70;3.65;;;4.70;92.10;;;;;;5028007;28;20052;-75
2021/01/05 11:32:56;;;;;;;7.40;4.00;;;4.70;92.10;;;;;;5017310;28;20030;-75
2021/01/05 11:35:22;;;;;;;6.95;3.65;;;4.60;92.30;;;;;;5021918;28;20033;-75
2021/01/05 11:37:49;;;;;;;7.35;3.78;;;4.70;92.40;;;;;;5004390;28;20025;-75
2021/01/05 11:40:15;;;;;;;8.25;4.32;;;4.80;92.20;;;;;;5017215;28;20025;-76
2021/01/05 11:42:41;;;;;;;6.63;3.63;;;4.70;92.20;;;;;;5002747;28;20075;-75
2021/01/05 11:45:09;;;;;;;7.82;3.67;;;4.70;92.30;;;;;;5018643;28;20021;-74
2021/01/05 11:47:36;;;;;;;5.43;2.83;;;4.80;92.80;;;;;;5001742;28;20034;-74
2021/01/05 11:50:03;;;;;;;8.48;3.38;;;4.80;92.30;;;;;;5016506;28;20026;-75
2021/01/05 11:52:30;;;;;;;5.93;2.88;;;4.90;92.20;;;;;;4988120;28;20030;-75
2021/01/05 11:54:57;;;;;;;4.43;2.78;;;4.90;92.10;;;;;;5017707;28;20029;-74
2021/01/05 11:57:22;;;;;;;4.38;2.80;;;4.90;92.10;;;;;;5016167;28;20064;-73
2021/01/05 11:59:48;;;;;;;3.83;2.63;;;4.90;92.00;;;;;;5004331;28;20504;-76
2021/01/05 12:02:14;;;;;;;4.82;3.20;;;4.90;92.00;;;;;;5007439;28;20084;-75
2021/01/05 12:04:39;;;;;;;5.43;2.92;;;4.90;91.50;;;;;;5016280;28;20061;-76
2021/01/05 12:07:06;;;;;;;3.95;2.92;;;4.90;91.60;;;;;;5022313;28;20032;-77
2021/01/05 12:09:31;;;;;;;4.45;2.88;;;4.90;91.70;;;;;;5019413;28;20041;-77
2021/01/05 12:11:59;;;;;;;4.43;2.72;;;5.00;91.90;;;;;;5016271;28;20018;-77
2021/01/05 12:14:25;;;;;;;5.15;3.25;;;5.00;91.60;;;;;;5015904;28;20118;-76
2021/01/05 12:16:52;;;;;;;5.03;3.20;;;5.00;91.50;;;;;;5002816;28;20061;-76
2021/01/05 12:19:24;;;;;;;5.32;2.85;;;5.00;91.60;;;;;;5018401;28;20105;-75
2021/01/05 12:21:51;;;;;;;4.78;2.90;;;4.90;91.70;;;;;;5014162;28;20030;-75
2021/01/05 12:24:20;;;;;;;5.35;2.95;;;4.90;91.80;;;;;;5006877;28;20113;-75
2021/01/05 12:26:46;;;;;;;4.97;2.90;;;4.80;91.80;;;;;;4998253;28;20025;-75
2021/01/05 12:29:24;;;;;;;6.47;2.97;;;4.70;91.90;;;;;;4995294;28;20041;-75
2021/01/05 12:31:53;;;;;;;5.05;3.00;;;4.60;92.10;;;;;;5018342;28;20462;-75
2021/01/05 12:34:26;;;;;;;6.15;2.70;;;4.60;92.30;;;;;;5010251;28;20100;-75
2021/01/05 12:36:53;;;;;;;5.18;2.92;;;4.60;92.40;;;;;;4998546;28;20030;-76
2021/01/05 12:39:24;;;;;;;4.00;2.47;;;4.60;92.50;;;;;;5016043;28;20025;-76
2021/01/05 12:41:51;;;;;;;4.35;2.53;;;4.60;92.70;;;;;;5013583;28;20419;-77
2021/01/05 12:44:21;;;;;;;4.10;2.70;;;4.50;92.40;;;;;;5015819;28;20022;-77
2021/01/05 12:46:47;;;;;;;5.93;3.20;;;4.50;92.40;;;;;;5014162;28;20080;-76
2021/01/05 12:49:14;;;;;;;3.92;2.65;;;4.50;92.50;;;;;;5015261;28;20035;-75
2021/01/05 12:51:42;;;;;;;4.72;2.60;;;4.50;92.60;;;;;;5012715;28;20101;-76
2021/01/05 12:54:11;;;;;;;4.03;2.90;;;4.40;92.50;;;;;;5005404;28;20088;-75
2021/01/05 12:56:37;;;;;;;5.30;2.42;;;4.50;92.70;;;;;;5015469;28;20030;-76
2021/01/05 12:59:03;;;;;;;5.35;3.15;;;4.50;92.30;;;;;;5017005;28;20030;-77
2021/01/05 13:01:29;;;;;;;4.38;2.78;;;4.50;92.40;;;;;;5023150;28;20519;-77
2021/01/05 13:03:55;;;;;;;4.32;2.63;;;4.50;92.70;;;;;;5015932;28;20033;-75
2021/01/05 13:06:21;;;;;;;4.07;2.90;;;4.50;92.50;;;;;;5016906;28;20032;-75
2021/01/05 13:08:48;;;;;;;4.45;2.60;;;4.40;92.50;;;;;;5013449;28;20026;-76
2021/01/05 13:11:21;;;;;;;6.30;2.78;;;4.40;92.50;;;;;;5013964;28;20026;-75
2021/01/05 13:13:47;;;;;;;7.70;2.67;;;4.40;92.70;;;;;;5012834;28;20033;-75